sensor_id;sensor_type;location;lat;lon;timestamp;P1;durP1;ratioP1;P2;durP2;ratioP2
37065;SDS011;22981;43.080;25.550;2023-01-08T00:00:03;15.43;;;10.43;;
37065;SDS011;22981;43.080;25.550;2023-01-08T00:02:32;18.12;;;11.40;;
37065;SDS011;22981;43.080;25.550;2023-01-08T00:04:59;25.05;;;17.80;;
37065;SDS011;22981;43.080;25.550;2023-01-08T00:07:27;25.50;;;17.10;;
37065;SDS011;22981;43.080;25.550;2023-01-08T00:09:54;26.17;;;16.17;;
37065;SDS011;22981;43.080;25.550;2023-01-08T00:12:22;27.52;;;17.25;;
37065;SDS011;22981;43.080;25.550;2023-01-08T00:14:49;26.95;;;16.60;;
37065;SDS011;22981;43.080;25.550;2023-01-08T00:17:17;27.93;;;17.85;;
37065;SDS011;22981;43.080;25.550;2023-01-08T00:19:45;28.20;;;18.30;;
37065;SDS011;22981;43.080;25.550;2023-01-08T00:22:12;26.77;;;18.55;;
37065;SDS011;22981;43.080;25.550;2023-01-08T00:24:40;27.67;;;16.95;;
37065;SDS011;22981;43.080;25.550;2023-01-08T00:27:07;29.85;;;18.87;;
37065;SDS011;22981;43.080;25.550;2023-01-08T00:29:35;25.55;;;17.95;;
37065;SDS011;22981;43.080;25.550;2023-01-08T00:32:03;33.00;;;22.15;;
37065;SDS011;22981;43.080;25.550;2023-01-08T00:34:30;34.80;;;22.40;;
37065;SDS011;22981;43.080;25.550;2023-01-08T00:36:58;37.65;;;27.25;;
37065;SDS011;22981;43.080;25.550;2023-01-08T00:39:25;33.78;;;23.52;;
37065;SDS011;22981;43.080;25.550;2023-01-08T00:41:53;38.50;;;25.90;;
37065;SDS011;22981;43.080;25.550;2023-01-08T00:44:20;39.10;;;23.70;;
37065;SDS011;22981;43.080;25.550;2023-01-08T00:46:48;30.95;;;20.95;;
37065;SDS011;22981;43.080;25.550;2023-01-08T00:49:15;30.77;;;21.37;;
37065;SDS011;22981;43.080;25.550;2023-01-08T00:51:43;30.15;;;19.60;;
37065;SDS011;22981;43.080;25.550;2023-01-08T00:54:11;96.47;;;51.37;;
37065;SDS011;22981;43.080;25.550;2023-01-08T00:56:38;53.78;;;33.73;;
37065;SDS011;22981;43.080;25.550;2023-01-08T00:59:06;55.50;;;31.95;;
37065;SDS011;22981;43.080;25.550;2023-01-08T01:01:33;62.40;;;35.95;;
37065;SDS011;22981;43.080;25.550;2023-01-08T01:04:01;57.58;;;35.00;;
37065;SDS011;22981;43.080;25.550;2023-01-08T01:06:28;54.73;;;35.03;;
37065;SDS011;22981;43.080;25.550;2023-01-08T01:08:56;29.30;;;19.62;;
37065;SDS011;22981;43.080;25.550;2023-01-08T01:11:24;46.85;;;25.23;;
37065;SDS011;22981;43.080;25.550;2023-01-08T01:13:54;68.28;;;31.90;;
37065;SDS011;22981;43.080;25.550;2023-01-08T01:16:22;125.33;;;57.00;;
37065;SDS011;22981;43.080;25.550;2023-01-08T01:18:49;100.65;;;47.93;;
37065;SDS011;22981;43.080;25.550;2023-01-08T01:21:20;89.95;;;45.38;;
37065;SDS011;22981;43.080;25.550;2023-01-08T01:23:48;89.77;;;44.50;;
37065;SDS011;22981;43.080;25.550;2023-01-08T01:26:18;69.22;;;37.45;;
37065;SDS011;22981;43.080;25.550;2023-01-08T01:28:47;66.20;;;34.58;;
37065;SDS011;22981;43.080;25.550;2023-01-08T01:31:16;78.20;;;42.05;;
37065;SDS011;22981;43.080;25.550;2023-01-08T01:33:45;71.12;;;34.45;;
37065;SDS011;22981;43.080;25.550;2023-01-08T01:36:13;49.38;;;25.62;;
37065;SDS011;22981;43.080;25.550;2023-01-08T01:38:47;46.18;;;24.32;;
37065;SDS011;22981;43.080;25.550;2023-01-08T01:41:18;51.63;;;26.60;;
37065;SDS011;22981;43.080;25.550;2023-01-08T01:43:55;35.17;;;19.92;;
37065;SDS011;22981;43.080;25.550;2023-01-08T01:46:25;38.90;;;20.85;;
37065;SDS011;22981;43.080;25.550;2023-01-08T01:49:02;39.98;;;23.87;;
37065;SDS011;22981;43.080;25.550;2023-01-08T01:51:34;41.37;;;25.17;;
37065;SDS011;22981;43.080;25.550;2023-01-08T01:54:04;34.88;;;19.02;;
37065;SDS011;22981;43.080;25.550;2023-01-08T01:56:34;18.98;;;11.30;;
37065;SDS011;22981;43.080;25.550;2023-01-08T01:59:02;12.63;;;8.75;;
37065;SDS011;22981;43.080;25.550;2023-01-08T02:01:31;15.72;;;9.55;;
37065;SDS011;22981;43.080;25.550;2023-01-08T02:03:59;13.38;;;9.55;;
37065;SDS011;22981;43.080;25.550;2023-01-08T02:06:37;16.73;;;9.88;;
37065;SDS011;22981;43.080;25.550;2023-01-08T02:09:22;16.02;;;10.20;;
37065;SDS011;22981;43.080;25.550;2023-01-08T02:12:10;25.10;;;15.45;;
37065;SDS011;22981;43.080;25.550;2023-01-08T02:14:56;31.90;;;21.50;;
37065;SDS011;22981;43.080;25.550;2023-01-08T02:17:25;35.40;;;22.62;;
37065;SDS011;22981;43.080;25.550;2023-01-08T02:20:02;36.63;;;23.00;;
37065;SDS011;22981;43.080;25.550;2023-01-08T02:28:08;26.23;;;16.20;;
37065;SDS011;22981;43.080;25.550;2023-01-08T02:30:40;25.30;;;15.80;;
37065;SDS011;22981;43.080;25.550;2023-01-08T02:33:08;25.37;;;16.07;;
37065;SDS011;22981;43.080;25.550;2023-01-08T02:35:41;39.08;;;24.75;;
37065;SDS011;22981;43.080;25.550;2023-01-08T02:38:10;36.60;;;21.55;;
37065;SDS011;22981;43.080;25.550;2023-01-08T02:40:53;31.73;;;20.62;;
37065;SDS011;22981;43.080;25.550;2023-01-08T02:43:26;34.05;;;21.40;;
37065;SDS011;22981;43.080;25.550;2023-01-08T02:45:58;34.15;;;21.17;;
37065;SDS011;22981;43.080;25.550;2023-01-08T02:48:37;35.88;;;21.40;;
37065;SDS011;22981;43.080;25.550;2023-01-08T02:51:11;30.37;;;19.98;;
37065;SDS011;22981;43.080;25.550;2023-01-08T02:53:43;32.83;;;21.05;;
37065;SDS011;22981;43.080;25.550;2023-01-08T02:56:14;33.23;;;21.33;;
37065;SDS011;22981;43.080;25.550;2023-01-08T02:58:43;37.60;;;22.40;;
37065;SDS011;22981;43.080;25.550;2023-01-08T03:01:13;48.98;;;28.87;;
37065;SDS011;22981;43.080;25.550;2023-01-08T03:03:43;44.83;;;28.80;;
37065;SDS011;22981;43.080;25.550;2023-01-08T03:06:17;46.48;;;29.42;;
37065;SDS011;22981;43.080;25.550;2023-01-08T03:08:46;66.15;;;41.95;;
37065;SDS011;22981;43.080;25.550;2023-01-08T03:11:20;60.85;;;40.83;;
37065;SDS011;22981;43.080;25.550;2023-01-08T03:13:56;42.10;;;28.35;;
37065;SDS011;22981;43.080;25.550;2023-01-08T03:16:54;30.45;;;21.20;;
37065;SDS011;22981;43.080;25.550;2023-01-08T03:19:27;31.20;;;20.12;;
37065;SDS011;22981;43.080;25.550;2023-01-08T03:21:55;30.55;;;18.80;;
37065;SDS011;22981;43.080;25.550;2023-01-08T03:24:26;30.00;;;18.05;;
37065;SDS011;22981;43.080;25.550;2023-01-08T03:26:56;31.62;;;19.87;;
37065;SDS011;22981;43.080;25.550;2023-01-08T03:29:26;33.33;;;21.15;;
37065;SDS011;22981;43.080;25.550;2023-01-08T03:31:55;36.50;;;22.90;;
37065;SDS011;22981;43.080;25.550;2023-01-08T03:34:24;34.10;;;21.15;;
37065;SDS011;22981;43.080;25.550;2023-01-08T03:36:54;36.83;;;22.87;;
37065;SDS011;22981;43.080;25.550;2023-01-08T03:39:33;32.78;;;21.00;;
37065;SDS011;22981;43.080;25.550;2023-01-08T03:42:07;34.47;;;20.53;;
37065;SDS011;22981;43.080;25.550;2023-01-08T03:44:37;32.78;;;22.15;;
37065;SDS011;22981;43.080;25.550;2023-01-08T03:47:05;36.55;;;24.82;;
37065;SDS011;22981;43.080;25.550;2023-01-08T03:49:35;39.55;;;24.80;;
37065;SDS011;22981;43.080;25.550;2023-01-08T03:52:05;34.13;;;22.65;;
37065;SDS011;22981;43.080;25.550;2023-01-08T03:54:34;33.63;;;22.35;;
37065;SDS011;22981;43.080;25.550;2023-01-08T03:57:02;33.42;;;21.17;;
37065;SDS011;22981;43.080;25.550;2023-01-08T03:59:30;28.35;;;18.85;;
37065;SDS011;22981;43.080;25.550;2023-01-08T04:01:57;29.52;;;18.85;;
37065;SDS011;22981;43.080;25.550;2023-01-08T04:04:25;28.02;;;18.98;;
37065;SDS011;22981;43.080;25.550;2023-01-08T04:06:52;27.15;;;18.52;;
37065;SDS011;22981;43.080;25.550;2023-01-08T04:09:20;26.12;;;17.00;;
37065;SDS011;22981;43.080;25.550;2023-01-08T04:11:48;32.25;;;20.43;;
37065;SDS011;22981;43.080;25.550;2023-01-08T04:14:15;31.97;;;20.95;;
37065;SDS011;22981;43.080;25.550;2023-01-08T04:16:43;42.93;;;28.35;;
37065;SDS011;22981;43.080;25.550;2023-01-08T04:19:11;51.65;;;30.92;;
37065;SDS011;22981;43.080;25.550;2023-01-08T04:21:39;85.07;;;54.15;;
37065;SDS011;22981;43.080;25.550;2023-01-08T04:24:06;93.20;;;58.55;;
37065;SDS011;22981;43.080;25.550;2023-01-08T04:26:34;40.85;;;26.20;;
37065;SDS011;22981;43.080;25.550;2023-01-08T04:29:02;23.52;;;15.05;;
37065;SDS011;22981;43.080;25.550;2023-01-08T04:31:30;31.82;;;18.60;;
37065;SDS011;22981;43.080;25.550;2023-01-08T04:33:58;21.82;;;14.45;;
37065;SDS011;22981;43.080;25.550;2023-01-08T04:36:25;24.00;;;15.13;;
37065;SDS011;22981;43.080;25.550;2023-01-08T04:38:53;19.10;;;12.65;;
37065;SDS011;22981;43.080;25.550;2023-01-08T04:41:20;19.57;;;13.18;;
37065;SDS011;22981;43.080;25.550;2023-01-08T04:43:48;19.90;;;13.58;;
37065;SDS011;22981;43.080;25.550;2023-01-08T04:46:15;24.82;;;16.10;;
37065;SDS011;22981;43.080;25.550;2023-01-08T04:48:43;21.17;;;12.75;;
37065;SDS011;22981;43.080;25.550;2023-01-08T04:51:11;33.73;;;19.02;;
37065;SDS011;22981;43.080;25.550;2023-01-08T04:53:38;67.05;;;28.77;;
37065;SDS011;22981;43.080;25.550;2023-01-08T04:56:07;32.58;;;17.82;;
37065;SDS011;22981;43.080;25.550;2023-01-08T04:58:36;35.80;;;19.12;;
37065;SDS011;22981;43.080;25.550;2023-01-08T05:01:11;103.85;;;42.08;;
37065;SDS011;22981;43.080;25.550;2023-01-08T05:03:40;102.15;;;41.75;;
37065;SDS011;22981;43.080;25.550;2023-01-08T05:06:08;71.22;;;33.08;;
37065;SDS011;22981;43.080;25.550;2023-01-08T05:08:35;40.92;;;21.30;;
37065;SDS011;22981;43.080;25.550;2023-01-08T05:11:03;24.92;;;16.77;;
37065;SDS011;22981;43.080;25.550;2023-01-08T05:13:31;23.05;;;14.98;;
37065;SDS011;22981;43.080;25.550;2023-01-08T05:15:58;23.30;;;16.75;;
37065;SDS011;22981;43.080;25.550;2023-01-08T05:18:27;26.27;;;18.25;;
37065;SDS011;22981;43.080;25.550;2023-01-08T05:20:58;39.35;;;25.77;;
37065;SDS011;22981;43.080;25.550;2023-01-08T05:23:27;27.85;;;20.10;;
37065;SDS011;22981;43.080;25.550;2023-01-08T05:25:56;25.43;;;14.75;;
37065;SDS011;22981;43.080;25.550;2023-01-08T05:28:28;22.87;;;15.23;;
37065;SDS011;22981;43.080;25.550;2023-01-08T05:30:56;25.65;;;16.73;;
37065;SDS011;22981;43.080;25.550;2023-01-08T05:33:24;27.52;;;16.37;;
37065;SDS011;22981;43.080;25.550;2023-01-08T05:35:52;27.27;;;16.55;;
37065;SDS011;22981;43.080;25.550;2023-01-08T05:38:19;29.70;;;19.55;;
37065;SDS011;22981;43.080;25.550;2023-01-08T05:40:47;30.15;;;20.70;;
37065;SDS011;22981;43.080;25.550;2023-01-08T05:43:16;26.70;;;18.15;;
37065;SDS011;22981;43.080;25.550;2023-01-08T05:45:43;46.23;;;28.20;;
37065;SDS011;22981;43.080;25.550;2023-01-08T05:48:11;70.50;;;41.85;;
37065;SDS011;22981;43.080;25.550;2023-01-08T05:50:39;93.20;;;56.37;;
37065;SDS011;22981;43.080;25.550;2023-01-08T05:53:06;96.78;;;59.58;;
37065;SDS011;22981;43.080;25.550;2023-01-08T05:55:34;82.05;;;47.15;;
37065;SDS011;22981;43.080;25.550;2023-01-08T05:58:03;50.08;;;32.13;;
37065;SDS011;22981;43.080;25.550;2023-01-08T06:00:32;42.60;;;26.85;;
37065;SDS011;22981;43.080;25.550;2023-01-08T06:03:00;43.58;;;25.52;;
37065;SDS011;22981;43.080;25.550;2023-01-08T06:05:28;38.23;;;24.92;;
37065;SDS011;22981;43.080;25.550;2023-01-08T06:07:57;32.75;;;23.65;;
37065;SDS011;22981;43.080;25.550;2023-01-08T06:10:25;35.25;;;23.67;;
37065;SDS011;22981;43.080;25.550;2023-01-08T06:12:53;31.45;;;18.12;;
37065;SDS011;22981;43.080;25.550;2023-01-08T06:15:21;42.03;;;25.37;;
37065;SDS011;22981;43.080;25.550;2023-01-08T06:17:48;48.48;;;26.35;;
37065;SDS011;22981;43.080;25.550;2023-01-08T06:20:16;35.98;;;22.10;;
37065;SDS011;22981;43.080;25.550;2023-01-08T06:22:43;30.62;;;19.07;;
37065;SDS011;22981;43.080;25.550;2023-01-08T06:25:11;28.73;;;17.48;;
37065;SDS011;22981;43.080;25.550;2023-01-08T06:27:39;29.85;;;19.62;;
37065;SDS011;22981;43.080;25.550;2023-01-08T06:30:06;33.53;;;22.73;;
37065;SDS011;22981;43.080;25.550;2023-01-08T06:32:34;40.35;;;28.70;;
37065;SDS011;22981;43.080;25.550;2023-01-08T06:35:02;33.30;;;23.92;;
37065;SDS011;22981;43.080;25.550;2023-01-08T06:37:29;33.33;;;23.80;;
37065;SDS011;22981;43.080;25.550;2023-01-08T06:39:57;24.20;;;17.48;;
37065;SDS011;22981;43.080;25.550;2023-01-08T06:42:24;64.90;;;44.08;;
37065;SDS011;22981;43.080;25.550;2023-01-08T06:44:52;43.92;;;29.45;;
37065;SDS011;22981;43.080;25.550;2023-01-08T06:47:19;34.25;;;21.12;;
37065;SDS011;22981;43.080;25.550;2023-01-08T06:49:47;38.53;;;24.52;;
37065;SDS011;22981;43.080;25.550;2023-01-08T06:52:15;33.33;;;22.00;;
37065;SDS011;22981;43.080;25.550;2023-01-08T06:54:42;36.65;;;25.08;;
37065;SDS011;22981;43.080;25.550;2023-01-08T06:57:10;39.50;;;27.00;;
37065;SDS011;22981;43.080;25.550;2023-01-08T06:59:37;45.38;;;31.25;;
37065;SDS011;22981;43.080;25.550;2023-01-08T07:02:05;46.60;;;33.33;;
37065;SDS011;22981;43.080;25.550;2023-01-08T07:04:34;78.12;;;32.70;;
37065;SDS011;22981;43.080;25.550;2023-01-08T07:07:02;54.85;;;30.62;;
37065;SDS011;22981;43.080;25.550;2023-01-08T07:09:29;54.35;;;30.88;;
37065;SDS011;22981;43.080;25.550;2023-01-08T07:11:58;45.55;;;29.85;;
37065;SDS011;22981;43.080;25.550;2023-01-08T07:14:26;49.73;;;31.02;;
37065;SDS011;22981;43.080;25.550;2023-01-08T07:16:54;51.23;;;30.77;;
37065;SDS011;22981;43.080;25.550;2023-01-08T07:19:21;51.08;;;33.20;;
37065;SDS011;22981;43.080;25.550;2023-01-08T07:21:49;62.05;;;38.78;;
37065;SDS011;22981;43.080;25.550;2023-01-08T07:24:16;76.10;;;45.60;;
37065;SDS011;22981;43.080;25.550;2023-01-08T07:26:44;95.70;;;53.33;;
37065;SDS011;22981;43.080;25.550;2023-01-08T07:29:11;86.42;;;48.83;;
37065;SDS011;22981;43.080;25.550;2023-01-08T07:31:39;109.03;;;60.75;;
37065;SDS011;22981;43.080;25.550;2023-01-08T07:34:06;86.92;;;54.08;;
37065;SDS011;22981;43.080;25.550;2023-01-08T07:36:34;83.52;;;51.70;;
37065;SDS011;22981;43.080;25.550;2023-01-08T07:39:02;69.25;;;46.42;;
37065;SDS011;22981;43.080;25.550;2023-01-08T07:41:29;66.17;;;44.00;;
37065;SDS011;22981;43.080;25.550;2023-01-08T07:43:57;63.92;;;42.70;;
37065;SDS011;22981;43.080;25.550;2023-01-08T07:46:24;59.90;;;38.23;;
37065;SDS011;22981;43.080;25.550;2023-01-08T07:48:52;56.02;;;36.63;;
37065;SDS011;22981;43.080;25.550;2023-01-08T07:51:21;48.55;;;33.35;;
37065;SDS011;22981;43.080;25.550;2023-01-08T07:53:49;46.30;;;32.00;;
37065;SDS011;22981;43.080;25.550;2023-01-08T07:56:16;49.48;;;33.78;;
37065;SDS011;22981;43.080;25.550;2023-01-08T07:58:44;48.10;;;29.57;;
37065;SDS011;22981;43.080;25.550;2023-01-08T08:01:12;39.42;;;27.65;;
37065;SDS011;22981;43.080;25.550;2023-01-08T08:03:40;38.15;;;27.07;;
37065;SDS011;22981;43.080;25.550;2023-01-08T08:06:07;43.95;;;29.85;;
37065;SDS011;22981;43.080;25.550;2023-01-08T08:08:35;37.00;;;25.45;;
37065;SDS011;22981;43.080;25.550;2023-01-08T08:11:03;34.30;;;25.48;;
37065;SDS011;22981;43.080;25.550;2023-01-08T08:13:30;35.23;;;23.00;;
37065;SDS011;22981;43.080;25.550;2023-01-08T08:16:01;32.20;;;23.87;;
37065;SDS011;22981;43.080;25.550;2023-01-08T08:18:30;34.78;;;23.02;;
37065;SDS011;22981;43.080;25.550;2023-01-08T08:20:57;30.82;;;22.45;;
37065;SDS011;22981;43.080;25.550;2023-01-08T08:23:25;33.65;;;23.70;;
37065;SDS011;22981;43.080;25.550;2023-01-08T08:25:52;32.63;;;22.60;;
37065;SDS011;22981;43.080;25.550;2023-01-08T08:28:20;24.70;;;18.35;;
37065;SDS011;22981;43.080;25.550;2023-01-08T08:30:48;21.15;;;15.38;;
37065;SDS011;22981;43.080;25.550;2023-01-08T08:33:17;15.72;;;13.10;;
37065;SDS011;22981;43.080;25.550;2023-01-08T08:35:48;15.10;;;11.50;;
37065;SDS011;22981;43.080;25.550;2023-01-08T08:38:16;15.45;;;12.13;;
37065;SDS011;22981;43.080;25.550;2023-01-08T08:40:44;15.75;;;12.58;;
37065;SDS011;22981;43.080;25.550;2023-01-08T08:43:11;16.93;;;13.43;;
37065;SDS011;22981;43.080;25.550;2023-01-08T08:45:39;18.15;;;12.37;;
37065;SDS011;22981;43.080;25.550;2023-01-08T08:48:06;14.55;;;11.63;;
37065;SDS011;22981;43.080;25.550;2023-01-08T08:50:35;20.00;;;14.03;;
37065;SDS011;22981;43.080;25.550;2023-01-08T08:53:04;19.35;;;13.72;;
37065;SDS011;22981;43.080;25.550;2023-01-08T08:55:32;16.52;;;11.60;;
37065;SDS011;22981;43.080;25.550;2023-01-08T08:58:03;30.43;;;19.35;;
37065;SDS011;22981;43.080;25.550;2023-01-08T09:00:35;25.02;;;16.48;;
37065;SDS011;22981;43.080;25.550;2023-01-08T09:03:03;18.70;;;14.93;;
37065;SDS011;22981;43.080;25.550;2023-01-08T09:05:33;24.07;;;18.25;;
37065;SDS011;22981;43.080;25.550;2023-01-08T09:08:02;20.57;;;16.20;;
37065;SDS011;22981;43.080;25.550;2023-01-08T09:10:30;20.75;;;15.28;;
37065;SDS011;22981;43.080;25.550;2023-01-08T09:12:57;20.52;;;16.02;;
37065;SDS011;22981;43.080;25.550;2023-01-08T09:15:25;22.90;;;16.30;;
37065;SDS011;22981;43.080;25.550;2023-01-08T09:17:57;19.80;;;13.85;;
37065;SDS011;22981;43.080;25.550;2023-01-08T09:20:23;22.50;;;19.17;;
37065;SDS011;22981;43.080;25.550;2023-01-08T09:22:52;18.48;;;13.80;;
37065;SDS011;22981;43.080;25.550;2023-01-08T09:25:20;18.23;;;13.48;;
37065;SDS011;22981;43.080;25.550;2023-01-08T09:27:47;19.77;;;14.47;;
37065;SDS011;22981;43.080;25.550;2023-01-08T09:30:15;18.82;;;15.08;;
37065;SDS011;22981;43.080;25.550;2023-01-08T09:32:42;16.48;;;13.43;;
37065;SDS011;22981;43.080;25.550;2023-01-08T09:35:10;53.73;;;40.15;;
37065;SDS011;22981;43.080;25.550;2023-01-08T09:37:38;23.47;;;17.80;;
37065;SDS011;22981;43.080;25.550;2023-01-08T09:40:05;20.05;;;16.50;;
37065;SDS011;22981;43.080;25.550;2023-01-08T09:42:35;22.75;;;17.70;;
37065;SDS011;22981;43.080;25.550;2023-01-08T09:45:03;29.10;;;22.30;;
37065;SDS011;22981;43.080;25.550;2023-01-08T09:47:38;26.02;;;22.87;;
37065;SDS011;22981;43.080;25.550;2023-01-08T09:50:03;26.30;;;23.40;;
37065;SDS011;22981;43.080;25.550;2023-01-08T09:52:33;27.30;;;22.62;;
37065;SDS011;22981;43.080;25.550;2023-01-08T09:55:02;26.45;;;20.45;;
37065;SDS011;22981;43.080;25.550;2023-01-08T09:57:31;25.10;;;19.50;;
37065;SDS011;22981;43.080;25.550;2023-01-08T09:59:59;23.95;;;18.07;;
37065;SDS011;22981;43.080;25.550;2023-01-08T10:02:26;21.33;;;17.73;;
37065;SDS011;22981;43.080;25.550;2023-01-08T10:04:56;20.27;;;15.58;;
37065;SDS011;22981;43.080;25.550;2023-01-08T10:07:27;25.88;;;19.80;;
37065;SDS011;22981;43.080;25.550;2023-01-08T10:09:55;22.13;;;16.10;;
37065;SDS011;22981;43.080;25.550;2023-01-08T10:12:29;15.65;;;11.50;;
37065;SDS011;22981;43.080;25.550;2023-01-08T10:14:59;13.58;;;10.63;;
37065;SDS011;22981;43.080;25.550;2023-01-08T10:17:30;9.95;;;8.85;;
37065;SDS011;22981;43.080;25.550;2023-01-08T10:20:11;13.18;;;9.58;;
37065;SDS011;22981;43.080;25.550;2023-01-08T10:22:41;13.03;;;10.20;;
37065;SDS011;22981;43.080;25.550;2023-01-08T10:25:14;13.28;;;9.58;;
37065;SDS011;22981;43.080;25.550;2023-01-08T10:27:50;13.68;;;10.55;;
37065;SDS011;22981;43.080;25.550;2023-01-08T10:30:20;17.65;;;13.68;;
37065;SDS011;22981;43.080;25.550;2023-01-08T10:32:52;17.15;;;11.80;;
37065;SDS011;22981;43.080;25.550;2023-01-08T10:35:23;16.85;;;12.37;;
37065;SDS011;22981;43.080;25.550;2023-01-08T10:37:52;13.25;;;11.33;;
37065;SDS011;22981;43.080;25.550;2023-01-08T10:40:39;20.20;;;15.30;;
37065;SDS011;22981;43.080;25.550;2023-01-08T10:43:12;13.65;;;11.35;;
37065;SDS011;22981;43.080;25.550;2023-01-08T10:45:42;17.70;;;14.05;;
37065;SDS011;22981;43.080;25.550;2023-01-08T10:48:14;15.48;;;13.40;;
37065;SDS011;22981;43.080;25.550;2023-01-08T10:50:43;16.30;;;12.00;;
37065;SDS011;22981;43.080;25.550;2023-01-08T10:53:24;15.35;;;11.88;;
37065;SDS011;22981;43.080;25.550;2023-01-08T10:56:03;16.67;;;13.00;;
37065;SDS011;22981;43.080;25.550;2023-01-08T10:58:39;33.53;;;25.30;;
37065;SDS011;22981;43.080;25.550;2023-01-08T11:01:27;19.27;;;15.50;;
37065;SDS011;22981;43.080;25.550;2023-01-08T11:03:59;19.50;;;15.23;;
37065;SDS011;22981;43.080;25.550;2023-01-08T11:06:32;22.30;;;17.25;;
37065;SDS011;22981;43.080;25.550;2023-01-08T11:09:18;26.68;;;19.60;;
37065;SDS011;22981;43.080;25.550;2023-01-08T11:11:50;26.12;;;18.70;;
37065;SDS011;22981;43.080;25.550;2023-01-08T11:16:48;14.85;;;12.98;;
37065;SDS011;22981;43.080;25.550;2023-01-08T11:19:17;17.15;;;12.80;;
37065;SDS011;22981;43.080;25.550;2023-01-08T11:21:53;15.23;;;12.73;;
37065;SDS011;22981;43.080;25.550;2023-01-08T11:24:26;18.15;;;15.43;;
37065;SDS011;22981;43.080;25.550;2023-01-08T11:26:56;26.95;;;20.25;;
37065;SDS011;22981;43.080;25.550;2023-01-08T11:32:07;23.35;;;17.73;;
37065;SDS011;22981;43.080;25.550;2023-01-08T11:37:21;14.18;;;11.30;;
37065;SDS011;22981;43.080;25.550;2023-01-08T11:39:51;14.68;;;12.30;;
37065;SDS011;22981;43.080;25.550;2023-01-08T11:50:30;17.42;;;12.13;;
37065;SDS011;22981;43.080;25.550;2023-01-08T11:53:05;14.65;;;11.53;;
37065;SDS011;22981;43.080;25.550;2023-01-08T12:07:18;13.32;;;10.95;;
37065;SDS011;22981;43.080;25.550;2023-01-08T12:10:13;13.32;;;10.15;;
37065;SDS011;22981;43.080;25.550;2023-01-08T12:13:41;13.58;;;10.18;;
37065;SDS011;22981;43.080;25.550;2023-01-08T12:15:21;10.80;;;8.80;;
37065;SDS011;22981;43.080;25.550;2023-01-08T12:20:42;15.13;;;8.65;;
37065;SDS011;22981;43.080;25.550;2023-01-08T12:23:31;8.88;;;7.85;;
37065;SDS011;22981;43.080;25.550;2023-01-08T12:26:08;10.93;;;7.58;;
37065;SDS011;22981;43.080;25.550;2023-01-08T12:29:02;10.25;;;6.80;;
37065;SDS011;22981;43.080;25.550;2023-01-08T12:32:02;7.47;;;6.33;;
37065;SDS011;22981;43.080;25.550;2023-01-08T12:34:34;7.40;;;6.15;;
37065;SDS011;22981;43.080;25.550;2023-01-08T12:37:05;8.93;;;6.20;;
37065;SDS011;22981;43.080;25.550;2023-01-08T12:39:52;7.65;;;5.83;;
37065;SDS011;22981;43.080;25.550;2023-01-08T12:42:21;8.45;;;5.95;;
37065;SDS011;22981;43.080;25.550;2023-01-08T12:44:53;8.05;;;5.03;;
37065;SDS011;22981;43.080;25.550;2023-01-08T12:47:24;6.17;;;4.85;;
37065;SDS011;22981;43.080;25.550;2023-01-08T12:49:58;6.58;;;4.50;;
37065;SDS011;22981;43.080;25.550;2023-01-08T12:52:44;7.35;;;4.10;;
37065;SDS011;22981;43.080;25.550;2023-01-08T12:55:16;7.35;;;4.05;;
37065;SDS011;22981;43.080;25.550;2023-01-08T12:57:51;4.92;;;3.10;;
37065;SDS011;22981;43.080;25.550;2023-01-08T13:00:23;5.83;;;3.12;;
37065;SDS011;22981;43.080;25.550;2023-01-08T13:02:58;7.00;;;5.05;;
37065;SDS011;22981;43.080;25.550;2023-01-08T13:05:32;8.75;;;5.17;;
37065;SDS011;22981;43.080;25.550;2023-01-08T13:08:01;6.53;;;3.70;;
37065;SDS011;22981;43.080;25.550;2023-01-08T13:15:32;4.75;;;2.67;;
37065;SDS011;22981;43.080;25.550;2023-01-08T13:18:06;3.10;;;2.80;;
37065;SDS011;22981;43.080;25.550;2023-01-08T13:20:42;3.63;;;2.63;;
37065;SDS011;22981;43.080;25.550;2023-01-08T13:23:25;4.03;;;2.80;;
37065;SDS011;22981;43.080;25.550;2023-01-08T13:25:55;3.95;;;2.30;;
37065;SDS011;22981;43.080;25.550;2023-01-08T13:28:26;3.33;;;2.37;;
37065;SDS011;22981;43.080;25.550;2023-01-08T13:31:05;3.60;;;2.45;;
37065;SDS011;22981;43.080;25.550;2023-01-08T13:33:36;4.75;;;3.05;;
37065;SDS011;22981;43.080;25.550;2023-01-08T13:36:13;4.00;;;3.10;;
37065;SDS011;22981;43.080;25.550;2023-01-08T13:41:37;6.03;;;3.70;;
37065;SDS011;22981;43.080;25.550;2023-01-08T13:47:05;9.33;;;3.55;;
37065;SDS011;22981;43.080;25.550;2023-01-08T13:49:35;8.78;;;4.30;;
37065;SDS011;22981;43.080;25.550;2023-01-08T13:52:04;7.37;;;4.03;;
37065;SDS011;22981;43.080;25.550;2023-01-08T13:54:38;5.10;;;3.65;;
37065;SDS011;22981;43.080;25.550;2023-01-08T13:57:11;6.20;;;4.10;;
37065;SDS011;22981;43.080;25.550;2023-01-08T13:59:57;6.03;;;5.37;;
37065;SDS011;22981;43.080;25.550;2023-01-08T14:04:53;6.78;;;4.70;;
37065;SDS011;22981;43.080;25.550;2023-01-08T14:07:21;7.67;;;4.28;;
37065;SDS011;22981;43.080;25.550;2023-01-08T14:09:49;5.37;;;3.83;;
37065;SDS011;22981;43.080;25.550;2023-01-08T14:12:18;7.97;;;5.67;;
37065;SDS011;22981;43.080;25.550;2023-01-08T14:14:48;9.85;;;6.42;;
37065;SDS011;22981;43.080;25.550;2023-01-08T14:17:19;10.72;;;6.87;;
37065;SDS011;22981;43.080;25.550;2023-01-08T14:19:48;8.70;;;6.87;;
37065;SDS011;22981;43.080;25.550;2023-01-08T14:22:21;10.25;;;7.00;;
37065;SDS011;22981;43.080;25.550;2023-01-08T14:24:48;9.68;;;7.50;;
37065;SDS011;22981;43.080;25.550;2023-01-08T14:27:24;9.73;;;7.10;;
37065;SDS011;22981;43.080;25.550;2023-01-08T14:29:48;14.23;;;8.53;;
37065;SDS011;22981;43.080;25.550;2023-01-08T14:32:16;14.28;;;10.88;;
37065;SDS011;22981;43.080;25.550;2023-01-08T14:34:46;14.78;;;11.70;;
37065;SDS011;22981;43.080;25.550;2023-01-08T14:37:16;37.28;;;26.35;;
37065;SDS011;22981;43.080;25.550;2023-01-08T14:39:45;28.75;;;21.07;;
37065;SDS011;22981;43.080;25.550;2023-01-08T14:42:22;55.03;;;44.63;;
37065;SDS011;22981;43.080;25.550;2023-01-08T14:48:06;19.65;;;17.02;;
37065;SDS011;22981;43.080;25.550;2023-01-08T14:50:28;21.30;;;15.58;;
37065;SDS011;22981;43.080;25.550;2023-01-08T14:53:16;21.15;;;15.30;;
37065;SDS011;22981;43.080;25.550;2023-01-08T14:55:59;18.07;;;12.40;;
37065;SDS011;22981;43.080;25.550;2023-01-08T14:58:33;15.72;;;11.03;;
37065;SDS011;22981;43.080;25.550;2023-01-08T15:01:05;15.20;;;10.40;;
37065;SDS011;22981;43.080;25.550;2023-01-08T15:03:38;12.78;;;9.58;;
37065;SDS011;22981;43.080;25.550;2023-01-08T15:06:07;13.32;;;9.98;;
37065;SDS011;22981;43.080;25.550;2023-01-08T15:08:37;14.00;;;11.25;;
37065;SDS011;22981;43.080;25.550;2023-01-08T15:13:49;20.43;;;14.78;;
37065;SDS011;22981;43.080;25.550;2023-01-08T15:19:03;35.43;;;20.20;;
37065;SDS011;22981;43.080;25.550;2023-01-08T15:24:02;63.02;;;41.25;;
37065;SDS011;22981;43.080;25.550;2023-01-08T15:26:31;50.55;;;32.55;;
37065;SDS011;22981;43.080;25.550;2023-01-08T15:29:00;35.58;;;23.20;;